createdAt,value
2023-01-15T00:02:19.061Z,2.47
2023-01-15T00:04:45.898Z,1.98
2023-01-15T00:07:14.125Z,1.92
2023-01-15T00:09:41.025Z,1.90
2023-01-15T00:12:08.008Z,1.80
2023-01-15T00:14:35.286Z,2.05
2023-01-15T00:17:02.381Z,1.88
2023-01-15T00:19:29.374Z,2.22
2023-01-15T00:21:56.488Z,2.03
2023-01-15T00:24:41.830Z,2.10
2023-01-15T00:27:29.670Z,1.85
2023-01-15T00:29:56.758Z,2.13
2023-01-15T00:32:25.718Z,2.50
2023-01-15T00:34:52.857Z,2.28
2023-01-15T00:37:19.899Z,2.40
2023-01-15T00:39:47.233Z,1.90
2023-01-15T00:42:14.181Z,2.42
2023-01-15T00:44:41.197Z,2.53
2023-01-15T00:47:09.313Z,2.45
2023-01-15T00:49:36.221Z,2.45
2023-01-15T00:52:03.559Z,2.35
2023-01-15T00:54:30.540Z,2.58
2023-01-15T00:56:57.377Z,2.90
2023-01-15T00:59:24.462Z,2.40
2023-01-15T01:01:51.383Z,2.70
2023-01-15T01:04:18.487Z,2.28
2023-01-15T01:06:45.389Z,2.60
2023-01-15T01:09:14.542Z,2.58
2023-01-15T01:11:41.991Z,2.70
2023-01-15T01:14:11.958Z,2.75
2023-01-15T01:16:42.054Z,2.30
2023-01-15T01:19:11.884Z,2.65
2023-01-15T01:21:40.352Z,2.58
2023-01-15T01:24:08.300Z,2.40
2023-01-15T01:26:35.390Z,2.70
2023-01-15T01:29:02.276Z,2.80
2023-01-15T01:31:29.517Z,2.63
2023-01-15T01:33:59.280Z,2.90
2023-01-15T01:36:31.604Z,2.88
2023-01-15T01:38:59.152Z,2.30
2023-01-15T01:41:26.914Z,2.63
2023-01-15T01:44:03.809Z,2.25
2023-01-15T01:46:33.707Z,2.35
2023-01-15T01:49:09.587Z,2.90
2023-01-15T01:51:41.345Z,2.95
2023-01-15T01:54:11.017Z,3.10
2023-01-15T01:56:37.939Z,2.63
2023-01-15T01:59:07.918Z,3.05
2023-01-15T02:01:35.388Z,2.35
2023-01-15T02:04:03.427Z,2.67
2023-01-15T02:06:31.330Z,2.33
2023-01-15T02:08:58.357Z,2.47
2023-01-15T02:11:25.717Z,2.75
2023-01-15T02:14:00.562Z,3.45
2023-01-15T02:16:37.190Z,1.83
2023-01-15T02:19:19.717Z,1.80
2023-01-15T02:22:11.333Z,2.53
2023-01-15T02:25:04.698Z,2.08
2023-01-15T02:27:32.247Z,2.30
2023-01-15T02:30:02.932Z,2.20
2023-01-15T02:32:47.304Z,2.28
2023-01-15T02:35:27.012Z,1.75
2023-01-15T02:37:58.533Z,1.95
2023-01-15T02:40:27.290Z,2.15
2023-01-15T02:42:56.562Z,2.80
2023-01-15T02:45:30.498Z,2.65
2023-01-15T02:48:06.707Z,1.80
2023-01-15T02:50:40.567Z,2.22
2023-01-15T02:53:14.291Z,2.90
2023-01-15T02:55:49.385Z,2.83
2023-01-15T02:58:21.608Z,2.85
2023-01-15T03:00:52.149Z,2.88
2023-01-15T03:03:28.750Z,2.40
2023-01-15T03:06:04.296Z,3.10
2023-01-15T03:08:31.721Z,2.10
2023-01-15T03:11:17.021Z,2.40
2023-01-15T03:14:00.151Z,2.50
2023-01-15T03:16:36.142Z,2.25
2023-01-15T03:19:14.259Z,2.08
2023-01-15T03:22:12.163Z,2.50
2023-01-15T03:24:57.908Z,2.42
2023-01-15T03:27:24.846Z,2.08
2023-01-15T03:29:55.759Z,2.35
2023-01-15T03:32:23.124Z,2.13
2023-01-15T03:34:52.921Z,2.17
2023-01-15T03:37:21.648Z,2.05
2023-01-15T03:39:48.979Z,2.20
2023-01-15T03:43:16.531Z,1.83
2023-01-15T03:45:45.938Z,2.10
2023-01-15T03:48:24.316Z,2.35
2023-01-15T03:51:07.602Z,1.75
2023-01-15T03:53:54.788Z,2.45
2023-01-15T03:56:33.245Z,1.75
2023-01-15T03:59:17.866Z,1.90
2023-01-15T04:01:46.726Z,1.67
2023-01-15T04:04:15.075Z,1.48
2023-01-15T04:06:43.618Z,1.83
2023-01-15T04:09:13.589Z,2.00
2023-01-15T04:11:41.669Z,1.73
2023-01-15T04:14:12.041Z,2.13
2023-01-15T04:16:38.966Z,1.75
2023-01-15T04:19:05.851Z,1.40
2023-01-15T04:21:33.095Z,1.25
2023-01-15T04:24:00.213Z,1.42
2023-01-15T04:26:27.124Z,1.30
2023-01-15T04:28:57.023Z,1.73
2023-01-15T04:31:24.012Z,2.00
2023-01-15T04:33:51.095Z,1.40
2023-01-15T04:36:18.224Z,1.52
2023-01-15T04:38:45.401Z,1.98
2023-01-15T04:41:30.847Z,1.70
2023-01-15T04:44:06.713Z,2.53
2023-01-15T04:46:43.820Z,1.25
2023-01-15T04:49:16.627Z,1.58
2023-01-15T04:51:44.405Z,1.58
2023-01-15T04:54:13.064Z,1.30
2023-01-15T04:56:43.888Z,1.50
2023-01-15T04:59:11.349Z,1.55
2023-01-15T05:01:38.533Z,1.48
2023-01-15T05:04:06.205Z,1.35
2023-01-15T05:06:36.445Z,1.30
2023-01-15T05:09:05.276Z,1.33
2023-01-15T05:11:35.444Z,1.20
2023-01-15T05:14:02.463Z,1.30
2023-01-15T05:16:31.629Z,1.48
2023-01-15T05:19:05.047Z,1.20
2023-01-15T05:21:35.090Z,1.35
2023-01-15T05:24:04.742Z,1.23
2023-01-15T05:26:36.224Z,1.40
2023-01-15T05:29:03.894Z,1.08
2023-01-15T05:31:31.529Z,1.40
2023-01-15T05:33:59.288Z,1.67
2023-01-15T05:36:29.576Z,1.20
2023-01-15T05:38:59.807Z,1.50
2023-01-15T05:41:45.358Z,1.40
2023-01-15T05:44:13.426Z,1.85
2023-01-15T05:46:42.554Z,1.27
2023-01-15T05:49:16.655Z,1.38
2023-01-15T05:51:44.128Z,1.38
2023-01-15T05:54:19.596Z,1.60
2023-01-15T05:56:47.833Z,1.95
2023-01-15T05:59:16.554Z,2.15
2023-01-15T06:01:43.803Z,2.17
2023-01-15T06:04:14.306Z,1.98
2023-01-15T06:06:42.680Z,2.08
2023-01-15T06:09:09.876Z,2.05
2023-01-15T06:11:36.993Z,2.17
2023-01-15T06:14:04.369Z,1.33
2023-01-15T06:16:31.841Z,2.85
2023-01-15T06:19:04.281Z,1.73
2023-01-15T06:21:33.256Z,1.95
2023-01-15T06:24:00.608Z,1.77
2023-01-15T06:26:28.161Z,1.95
2023-01-15T06:28:57.397Z,1.67
2023-01-15T06:31:26.967Z,1.80
2023-01-15T06:33:54.528Z,2.03
2023-01-15T06:36:23.711Z,1.98
2023-01-15T06:38:54.859Z,2.15
2023-01-15T06:41:47.360Z,1.83
2023-01-15T06:44:36.173Z,1.70
2023-01-15T06:47:21.101Z,1.98
2023-01-15T06:49:54.151Z,1.70
2023-01-15T06:52:21.952Z,2.20
2023-01-15T06:54:51.374Z,2.65
2023-01-15T06:57:24.967Z,2.00
2023-01-15T06:59:55.499Z,1.90
2023-01-15T07:02:30.171Z,1.98
2023-01-15T07:04:57.180Z,2.22
2023-01-15T07:07:24.132Z,1.88
2023-01-15T07:09:53.914Z,2.15
2023-01-15T07:12:23.406Z,2.47
2023-01-15T07:14:52.925Z,2.22
2023-01-15T07:17:20.112Z,2.25
2023-01-15T07:19:47.408Z,1.83
2023-01-15T07:22:14.431Z,1.83
2023-01-15T07:24:41.600Z,1.85
2023-01-15T07:27:08.687Z,2.22
2023-01-15T07:29:35.708Z,1.80
2023-01-15T07:32:02.926Z,2.22
2023-01-15T07:34:38.303Z,2.30
2023-01-15T07:37:07.841Z,2.42
2023-01-15T07:39:34.849Z,2.75
2023-01-15T07:42:20.297Z,2.67
2023-01-15T07:45:05.778Z,1.95
2023-01-15T07:47:51.405Z,1.95
2023-01-15T07:50:23.797Z,2.28
2023-01-15T07:52:53.149Z,2.65
2023-01-15T07:55:21.076Z,1.65
2023-01-15T07:57:48.121Z,1.58
2023-01-15T08:00:20.479Z,1.98
2023-01-15T08:02:49.831Z,2.35
2023-01-15T08:05:17.664Z,2.42
2023-01-15T08:07:48.578Z,1.90
2023-01-15T08:10:15.785Z,2.22
2023-01-15T08:13:01.948Z,2.08
2023-01-15T08:15:35.111Z,1.85
2023-01-15T08:18:02.103Z,2.20
2023-01-15T08:20:29.267Z,2.03
2023-01-15T08:22:56.309Z,2.60
2023-01-15T08:25:25.657Z,2.47
2023-01-15T08:27:53.435Z,2.63
2023-01-15T08:30:24.527Z,3.10
2023-01-15T08:32:51.962Z,2.45
2023-01-15T08:35:19.010Z,3.22
2023-01-15T08:37:46.001Z,2.92
2023-01-15T08:40:13.317Z,3.25
2023-01-15T08:42:52.508Z,2.03
2023-01-15T08:45:19.435Z,1.90
2023-01-15T08:47:46.705Z,1.90
2023-01-15T08:50:13.731Z,1.70
2023-01-15T08:52:40.918Z,2.00
2023-01-15T08:55:08.482Z,1.70
2023-01-15T08:57:35.813Z,2.22
2023-01-15T09:00:02.823Z,1.80
2023-01-15T09:02:30.061Z,1.60
2023-01-15T09:04:57.334Z,1.30
2023-01-15T09:07:24.674Z,1.17
2023-01-15T09:09:54.472Z,1.20
2023-01-15T09:12:24.889Z,1.20
2023-01-15T09:14:58.442Z,0.88
2023-01-15T09:17:29.071Z,1.20
2023-01-15T09:19:55.966Z,1.35
2023-01-15T09:22:22.789Z,1.30
2023-01-15T09:24:49.755Z,1.40
2023-01-15T09:27:16.617Z,1.15
2023-01-15T09:29:43.465Z,1.92
2023-01-15T09:32:10.662Z,1.33
2023-01-15T09:34:37.767Z,1.08
2023-01-15T09:37:04.747Z,1.40
2023-01-15T09:39:32.019Z,1.50
2023-01-15T09:42:18.840Z,1.50
2023-01-15T09:44:45.842Z,1.40
2023-01-15T09:47:32.064Z,1.70
2023-01-15T09:50:28.146Z,1.67
2023-01-15T09:53:05.290Z,1.23
2023-01-15T09:55:35.994Z,1.25
2023-01-15T09:58:06.163Z,1.40
2023-01-15T10:00:41.400Z,1.50
2023-01-15T10:03:23.166Z,1.17
2023-01-15T10:05:59.193Z,1.27
2023-01-15T10:08:41.023Z,1.55
2023-01-15T10:11:20.069Z,1.55
2023-01-15T10:13:49.479Z,1.25
2023-01-15T10:16:24.808Z,1.58
2023-01-15T10:18:53.000Z,1.40
2023-01-15T10:21:51.071Z,1.77
2023-01-15T10:24:19.243Z,1.40
2023-01-15T10:26:57.517Z,1.88
2023-01-15T10:29:33.356Z,1.92
2023-01-15T10:32:10.778Z,1.98
2023-01-15T10:34:52.225Z,2.40
2023-01-15T10:37:42.075Z,1.65
2023-01-15T10:40:15.104Z,1.83
2023-01-15T10:43:05.165Z,1.30
2023-01-15T10:45:51.083Z,2.80
2023-01-15T10:49:00.971Z,1.63
2023-01-15T10:51:34.361Z,1.70
2023-01-15T10:54:17.768Z,2.00
2023-01-15T10:57:12.412Z,1.83
2023-01-15T10:59:59.773Z,1.73
2023-01-15T11:02:37.656Z,1.70
2023-01-15T11:05:05.296Z,2.28
2023-01-15T11:08:10.309Z,1.65
2023-01-15T11:10:34.644Z,1.67
2023-01-15T11:13:39.116Z,1.80
2023-01-15T11:16:32.381Z,1.85
2023-01-15T11:19:24.900Z,1.70
2023-01-15T11:21:53.940Z,1.45
2023-01-15T11:24:21.150Z,1.35
2023-01-15T11:26:53.195Z,1.50
2023-01-15T11:29:38.073Z,1.50
2023-01-15T11:32:17.414Z,2.00
2023-01-15T11:34:54.127Z,1.58
2023-01-15T11:37:21.337Z,1.33
2023-01-15T11:40:08.916Z,1.23
2023-01-15T11:43:03.975Z,1.50
2023-01-15T11:45:49.835Z,1.20
2023-01-15T11:48:38.498Z,1.40
2023-01-15T11:51:16.625Z,1.60
2023-01-15T11:53:56.202Z,1.50
2023-01-15T11:56:26.239Z,1.17
2023-01-15T11:58:56.403Z,1.67
2023-01-15T12:01:32.629Z,1.30
2023-01-15T12:04:01.961Z,1.77
2023-01-15T12:06:31.584Z,1.40
2023-01-15T12:08:58.768Z,1.30
2023-01-15T12:11:31.677Z,1.33
2023-01-15T12:14:16.698Z,1.20
2023-01-15T12:16:55.642Z,1.33
2023-01-15T12:19:47.635Z,1.20
2023-01-15T12:22:43.733Z,1.92
2023-01-15T12:25:55.779Z,1.20
2023-01-15T12:28:29.724Z,1.05
2023-01-15T12:31:02.279Z,1.30
2023-01-15T12:33:49.897Z,1.05
2023-01-15T12:36:24.484Z,1.20
2023-01-15T12:39:13.476Z,1.08
2023-01-15T12:42:03.910Z,1.30
2023-01-15T12:45:01.104Z,1.10
2023-01-15T12:47:46.936Z,1.10
2023-01-15T12:50:25.057Z,1.80
2023-01-15T12:53:19.030Z,1.58
2023-01-15T12:55:58.837Z,1.33
2023-01-15T12:58:41.144Z,1.10
2023-01-15T13:01:17.255Z,1.20
2023-01-15T13:03:54.040Z,1.15
2023-01-15T13:06:24.450Z,1.40
2023-01-15T13:09:02.284Z,1.33
2023-01-15T13:11:29.641Z,1.70
2023-01-15T13:14:00.275Z,1.50
2023-01-15T13:16:45.485Z,1.30
2023-01-15T13:19:35.383Z,1.30
2023-01-15T13:22:07.398Z,1.70
2023-01-15T13:24:58.003Z,1.60
2023-01-15T13:27:25.008Z,1.35
2023-01-15T13:30:19.854Z,1.80
2023-01-15T13:32:50.201Z,1.77
2023-01-15T13:35:34.216Z,2.50
2023-01-15T13:38:04.755Z,1.52
2023-01-15T13:40:50.373Z,1.58
2023-01-15T13:43:35.629Z,1.85
2023-01-15T13:46:19.442Z,1.70
2023-01-15T13:48:49.379Z,1.80
2023-01-15T13:51:43.322Z,1.58
2023-01-15T13:54:17.096Z,1.20
2023-01-15T13:56:45.675Z,1.35
2023-01-15T13:59:33.662Z,0.90
2023-01-15T14:02:00.736Z,1.42
2023-01-15T14:04:37.524Z,1.40
2023-01-15T14:07:07.904Z,1.65
2023-01-15T14:09:37.438Z,1.17
2023-01-15T14:12:07.190Z,1.08
2023-01-15T14:14:46.087Z,1.60
2023-01-15T14:17:43.741Z,1.50
2023-01-15T14:20:51.489Z,1.23
2023-01-15T14:23:21.377Z,1.02
2023-01-15T14:25:57.128Z,1.52
2023-01-15T14:28:53.435Z,1.20
2023-01-15T14:31:31.345Z,1.40
2023-01-15T14:34:13.611Z,1.80
2023-01-15T14:36:47.007Z,1.73
2023-01-15T14:39:35.294Z,2.22
2023-01-15T14:42:42.600Z,2.53
2023-01-15T14:45:18.796Z,1.50
2023-01-15T14:47:53.464Z,1.70
2023-01-15T14:50:40.662Z,1.63
2023-01-15T14:53:16.362Z,1.80
2023-01-15T14:55:49.335Z,1.52
2023-01-15T14:58:34.986Z,1.55
2023-01-15T15:01:12.087Z,1.55
2023-01-15T15:03:58.702Z,1.10
2023-01-15T15:06:28.180Z,1.50
2023-01-15T15:09:03.144Z,1.25
2023-01-15T15:11:57.631Z,1.60
2023-01-15T15:14:27.566Z,1.40
2023-01-15T15:17:00.829Z,1.05
2023-01-15T15:20:00.675Z,1.02
2023-01-15T15:22:33.085Z,1.67
2023-01-15T15:25:06.336Z,1.73
2023-01-15T15:27:33.265Z,1.55
2023-01-15T15:30:08.160Z,1.17
2023-01-15T15:32:41.270Z,1.13
2023-01-15T15:35:30.195Z,1.30
2023-01-15T15:38:03.800Z,1.20
2023-01-15T15:40:34.425Z,1.55
2023-01-15T15:43:28.946Z,1.35
2023-01-15T15:46:15.988Z,1.35
2023-01-15T15:48:51.147Z,1.67
2023-01-15T15:51:24.257Z,0.90
2023-01-15T15:53:51.377Z,1.60
2023-01-15T15:56:18.492Z,1.10
2023-01-15T15:58:46.627Z,1.45
2023-01-15T16:01:14.136Z,1.77
2023-01-15T16:03:48.430Z,2.33
2023-01-15T16:06:22.072Z,2.50
2023-01-15T16:08:58.916Z,2.25
2023-01-15T16:11:26.484Z,1.55
2023-01-15T16:13:56.815Z,1.38
2023-01-15T16:16:27.337Z,2.08
2023-01-15T16:18:58.232Z,2.80
2023-01-15T16:21:37.227Z,2.33
2023-01-15T16:24:24.049Z,2.38
2023-01-15T16:27:09.105Z,3.05
2023-01-15T16:29:36.751Z,3.60
2023-01-15T16:32:14.675Z,3.15
2023-01-15T16:34:42.132Z,3.60
2023-01-15T16:37:32.645Z,3.47
2023-01-15T16:40:01.176Z,3.38
2023-01-15T16:42:31.431Z,3.05
2023-01-15T16:45:11.735Z,3.42
2023-01-15T16:47:38.606Z,3.80
2023-01-15T16:50:23.278Z,2.90
2023-01-15T16:52:51.256Z,3.58
2023-01-15T16:55:40.437Z,4.85
2023-01-15T16:58:13.532Z,3.40
2023-01-15T17:00:43.283Z,3.83
2023-01-15T17:03:22.520Z,4.50
2023-01-15T17:05:53.095Z,3.15
2023-01-15T17:08:25.402Z,2.47
2023-01-15T17:11:00.293Z,2.40
2023-01-15T17:13:37.244Z,2.25
2023-01-15T17:16:14.621Z,2.78
2023-01-15T17:18:41.499Z,2.50
2023-01-15T17:21:17.923Z,2.10
2023-01-15T17:23:46.104Z,2.35
2023-01-15T17:26:22.554Z,3.00
2023-01-15T17:28:50.238Z,3.85
2023-01-15T17:31:31.153Z,3.13
2023-01-15T17:34:00.597Z,2.78
2023-01-15T17:36:28.608Z,2.70
2023-01-15T17:38:55.638Z,2.20
2023-01-15T17:41:23.855Z,2.35
2023-01-15T17:43:50.695Z,1.90
2023-01-15T17:46:17.569Z,2.20
2023-01-15T17:48:44.375Z,2.50
2023-01-15T17:51:14.390Z,2.08
2023-01-15T17:53:41.894Z,1.95
2023-01-15T17:56:28.017Z,2.67
2023-01-15T17:59:33.230Z,2.08
2023-01-15T18:02:18.650Z,2.70
2023-01-15T18:05:08.694Z,2.60
2023-01-15T18:07:40.880Z,2.72
2023-01-15T18:10:19.101Z,2.75
2023-01-15T18:12:46.954Z,2.42
2023-01-15T18:15:15.877Z,2.25
2023-01-15T18:17:43.447Z,2.28
2023-01-15T18:20:11.354Z,2.17
2023-01-15T18:22:38.342Z,1.88
2023-01-15T18:25:06.858Z,1.95
2023-01-15T18:27:33.762Z,2.05
2023-01-15T18:30:00.666Z,1.83
2023-01-15T18:32:30.807Z,1.80
2023-01-15T18:34:57.753Z,2.05
2023-01-15T18:37:24.673Z,2.15
2023-01-15T18:39:51.562Z,1.50
2023-01-15T18:42:37.393Z,1.63
2023-01-15T18:45:23.330Z,1.98
2023-01-15T18:47:50.381Z,2.28
2023-01-15T18:50:17.610Z,2.17
2023-01-15T18:52:50.283Z,2.30
2023-01-15T18:55:28.144Z,1.80
2023-01-15T18:57:55.838Z,1.67
2023-01-15T19:00:24.621Z,1.85
2023-01-15T19:02:52.224Z,1.40
2023-01-15T19:05:19.842Z,1.75
2023-01-15T19:07:47.119Z,1.83
2023-01-15T19:10:16.299Z,1.83
2023-01-15T19:12:44.868Z,1.42
2023-01-15T19:15:34.398Z,2.45
2023-01-15T19:18:19.931Z,10.35
2023-01-15T19:20:47.005Z,5.70
2023-01-15T19:23:14.054Z,3.13
2023-01-15T19:25:43.619Z,1.70
2023-01-15T19:28:17.781Z,1.60
2023-01-15T19:31:09.806Z,1.25
2023-01-15T19:33:36.722Z,1.45
2023-01-15T19:36:04.060Z,1.23
2023-01-15T19:38:31.141Z,1.63
2023-01-15T19:41:17.868Z,1.30
2023-01-15T19:44:03.414Z,2.08
2023-01-15T19:46:49.210Z,1.30
2023-01-15T19:49:39.246Z,2.05
2023-01-15T19:52:24.457Z,1.30
2023-01-15T19:54:57.411Z,1.85
2023-01-15T19:57:24.757Z,1.50
2023-01-15T19:59:51.781Z,1.20
2023-01-15T20:02:18.982Z,1.40
2023-01-15T20:04:46.640Z,1.05
2023-01-15T20:07:13.921Z,1.30
2023-01-15T20:09:41.853Z,1.50
2023-01-15T20:12:29.502Z,1.67
2023-01-15T20:14:56.847Z,1.27
2023-01-15T20:17:24.018Z,1.58
2023-01-15T20:19:51.012Z,1.40
2023-01-15T20:22:17.931Z,1.50
2023-01-15T20:24:47.535Z,1.40
2023-01-15T20:27:14.589Z,2.05
2023-01-15T20:29:44.450Z,1.58
2023-01-15T20:32:11.380Z,1.60
2023-01-15T20:34:41.471Z,1.38
2023-01-15T20:37:08.360Z,1.70
2023-01-15T20:39:35.299Z,1.70
2023-01-15T20:42:20.684Z,1.55
2023-01-15T20:44:53.617Z,1.65
2023-01-15T20:47:45.656Z,1.58
2023-01-15T20:50:15.916Z,1.63
2023-01-15T20:52:48.672Z,1.75
2023-01-15T20:55:17.531Z,1.85
2023-01-15T20:57:44.554Z,1.70
2023-01-15T21:00:21.808Z,1.60
2023-01-15T21:02:51.148Z,1.77
2023-01-15T21:05:20.474Z,1.63
2023-01-15T21:07:47.453Z,2.00
2023-01-15T21:10:14.647Z,2.03
2023-01-15T21:12:42.112Z,1.80
2023-01-15T21:15:10.625Z,1.85
2023-01-15T21:17:39.178Z,1.70
2023-01-15T21:20:11.871Z,2.03
2023-01-15T21:22:39.085Z,1.80
2023-01-15T21:25:09.737Z,1.20
2023-01-15T21:27:37.912Z,1.70
2023-01-15T21:30:06.248Z,1.85
2023-01-15T21:32:33.291Z,1.65
2023-01-15T21:35:00.257Z,1.70
2023-01-15T21:37:27.212Z,1.92
2023-01-15T21:39:54.340Z,1.75
2023-01-15T21:42:40.625Z,1.88
2023-01-15T21:45:28.420Z,1.60
2023-01-15T21:47:55.357Z,2.05
2023-01-15T21:50:22.168Z,2.03
2023-01-15T21:52:49.087Z,1.80
2023-01-15T21:55:15.992Z,1.98
2023-01-15T21:57:43.019Z,2.17
2023-01-15T22:00:11.902Z,2.13
2023-01-15T22:02:39.015Z,1.58
2023-01-15T22:05:08.232Z,1.80
2023-01-15T22:07:35.235Z,1.90
2023-01-15T22:10:02.680Z,1.88
2023-01-15T22:12:29.657Z,1.85
2023-01-15T22:14:57.615Z,1.60
2023-01-15T22:17:27.510Z,1.90
2023-01-15T22:19:54.363Z,1.60
2023-01-15T22:22:22.648Z,1.67
2023-01-15T22:24:49.668Z,1.60
2023-01-15T22:27:16.748Z,1.98
2023-01-15T22:29:43.910Z,2.08
2023-01-15T22:32:13.781Z,2.10
2023-01-15T22:34:40.825Z,1.60
2023-01-15T22:37:07.898Z,2.05
2023-01-15T22:39:35.325Z,1.60
2023-01-15T22:42:20.676Z,1.65
2023-01-15T22:44:48.976Z,2.53
2023-01-15T22:47:17.083Z,1.65
2023-01-15T22:49:44.232Z,1.80
2023-01-15T22:52:11.483Z,2.40
2023-01-15T22:54:38.446Z,1.80
2023-01-15T22:57:05.428Z,1.60
2023-01-15T22:59:32.223Z,1.52
2023-01-15T23:01:59.387Z,1.85
2023-01-15T23:04:26.795Z,1.80
2023-01-15T23:06:54.708Z,2.17
2023-01-15T23:09:23.227Z,1.88
2023-01-15T23:11:51.589Z,1.67
2023-01-15T23:14:21.246Z,1.55
2023-01-15T23:16:48.340Z,1.60
2023-01-15T23:19:15.656Z,1.40
2023-01-15T23:21:43.114Z,1.50
2023-01-15T23:24:10.933Z,1.45
2023-01-15T23:26:38.431Z,2.08
2023-01-15T23:29:05.681Z,1.48
2023-01-15T23:31:32.733Z,2.05
2023-01-15T23:33:59.549Z,1.50
2023-01-15T23:36:27.287Z,1.05
2023-01-15T23:38:54.462Z,1.60
2023-01-15T23:41:43.282Z,1.98
2023-01-15T23:44:35.742Z,1.35
2023-01-15T23:47:05.270Z,1.88
2023-01-15T23:49:32.474Z,1.70
2023-01-15T23:51:59.619Z,1.65
2023-01-15T23:54:30.185Z,1.63
2023-01-15T23:56:59.607Z,1.50
2023-01-15T23:59:27.546Z,1.20
